KSBM/SBM METAR and TAF weather

Enter ICAO airport designator
Station Type Date Time Source
KSBM METAR 2019/08/25 02:53 UTC NOAA

KSBM 250253Z AUTO 04004KT 10SM CLR 13/11 A3024 RMK AO2 SLP239 T01330106 58004


Station Type Date Time Source
KSBM Decoded METAR 2019/08/25 02:53 UTC NOAA

Station name not available
Aug 24, 2019 - 10:53 PM EDT / 2019.08.25 0253 UTC
Wind: from the NE (040 degrees) at 5 MPH (4 KT):0
Visibility: 10 mile(s):0
Sky conditions: clear
Temperature: 55.9 F (13.3 C)
Dew Point: 51.1 F (10.6 C)
Relative Humidity: 83%
Pressure (altimeter): 30.24 in. Hg (1024 hPa)
Pressure tendency: 0.01 inches (0.4 hPa) lower than three hours ago
ob: KSBM 250253Z AUTO 04004KT 10SM CLR 13/11 A3024 RMK AO2 SLP239 T01330106 58004
cycle: 3

Station Type Date Time Source
KSBM TAF UTC NOAA

Error!

Example: see airport list